sensor_id;sensor_type;location;lat;lon;timestamp;pressure;altitude;pressure_sealevel;temperature;humidity
66627;BME280;53498;50.422;14.912;2022-07-24T07:27:56;99516.19;;;24.17;42.39
66627;BME280;53498;50.422;14.912;2022-07-24T07:30:23;99508.06;;;24.20;43.13
66627;BME280;53498;50.422;14.912;2022-07-24T07:32:49;99511.13;;;24.30;43.18
66627;BME280;53498;50.422;14.912;2022-07-24T07:35:15;99517.63;;;24.05;42.39
66627;BME280;53498;50.422;14.912;2022-07-24T07:37:44;99513.56;;;24.15;43.62
66627;BME280;53498;50.422;14.912;2022-07-24T07:40:10;99518.13;;;23.17;42.57
66627;BME280;53498;50.422;14.912;2022-07-24T07:42:43;99516.75;;;23.48;43.86
66627;BME280;53498;50.422;14.912;2022-07-24T07:45:09;99518.22;;;23.93;43.54
66627;BME280;53498;50.422;14.912;2022-07-24T07:47:36;99512.19;;;23.89;42.59
66627;BME280;53498;50.422;14.912;2022-07-24T07:50:03;99516.00;;;23.84;43.72
66627;BME280;53498;50.422;14.912;2022-07-24T07:52:29;99524.75;;;24.22;42.50
66627;BME280;53498;50.422;14.912;2022-07-24T07:54:55;99525.22;;;24.13;44.33
66627;BME280;53498;50.422;14.912;2022-07-24T07:57:21;99528.75;;;24.50;42.86
66627;BME280;53498;50.422;14.912;2022-07-24T07:59:47;99526.88;;;24.15;42.32
66627;BME280;53498;50.422;14.912;2022-07-24T08:02:13;99516.28;;;24.33;42.95
66627;BME280;53498;50.422;14.912;2022-07-24T08:04:39;99517.22;;;23.95;42.79
66627;BME280;53498;50.422;14.912;2022-07-24T08:07:07;99514.03;;;24.06;42.11
66627;BME280;53498;50.422;14.912;2022-07-24T08:09:33;99510.25;;;24.29;42.81
66627;BME280;53498;50.422;14.912;2022-07-24T08:11:59;99514.56;;;24.13;42.48
66627;BME280;53498;50.422;14.912;2022-07-24T08:14:24;99517.31;;;24.11;44.51
66627;BME280;53498;50.422;14.912;2022-07-24T08:16:50;99504.53;;;23.63;43.29
66627;BME280;53498;50.422;14.912;2022-07-24T08:19:15;99512.06;;;23.53;44.39
66627;BME280;53498;50.422;14.912;2022-07-24T08:21:41;99512.75;;;23.77;44.04
66627;BME280;53498;50.422;14.912;2022-07-24T08:24:07;99509.44;;;23.91;42.67
66627;BME280;53498;50.422;14.912;2022-07-24T08:26:32;99507.38;;;23.78;43.29
66627;BME280;53498;50.422;14.912;2022-07-24T08:28:58;99512.63;;;23.80;42.96
66627;BME280;53498;50.422;14.912;2022-07-24T08:31:27;99512.38;;;24.40;44.55
66627;BME280;53498;50.422;14.912;2022-07-24T08:33:53;99511.44;;;24.05;43.35
66627;BME280;53498;50.422;14.912;2022-07-24T08:36:19;99508.56;;;24.09;43.57
66627;BME280;53498;50.422;14.912;2022-07-24T08:38:45;99507.44;;;23.77;43.58
66627;BME280;53498;50.422;14.912;2022-07-24T08:41:12;99507.63;;;23.53;44.12
66627;BME280;53498;50.422;14.912;2022-07-24T08:43:38;99504.19;;;24.08;43.92
66627;BME280;53498;50.422;14.912;2022-07-24T08:46:04;99503.56;;;23.84;43.53
66627;BME280;53498;50.422;14.912;2022-07-24T08:48:34;99496.25;;;23.89;43.96
66627;BME280;53498;50.422;14.912;2022-07-24T08:51:01;99500.44;;;24.12;44.62
66627;BME280;53498;50.422;14.912;2022-07-24T08:53:27;99505.06;;;24.62;43.69
66627;BME280;53498;50.422;14.912;2022-07-24T08:55:53;99498.63;;;25.19;43.98
66627;BME280;53498;50.422;14.912;2022-07-24T08:58:18;99493.59;;;24.79;41.50
66627;BME280;53498;50.422;14.912;2022-07-24T09:00:44;99495.09;;;25.01;42.29
66627;BME280;53498;50.422;14.912;2022-07-24T09:03:10;99498.84;;;25.47;41.29
66627;BME280;53498;50.422;14.912;2022-07-24T09:05:58;99497.09;;;25.64;40.64
66627;BME280;53498;50.422;14.912;2022-07-24T09:08:27;99489.34;;;25.75;40.32
66627;BME280;53498;50.422;14.912;2022-07-24T09:13:24;99494.13;;;25.86;39.58
66627;BME280;53498;50.422;14.912;2022-07-24T09:15:50;99503.75;;;25.39;40.11
66627;BME280;53498;50.422;14.912;2022-07-24T09:18:33;99493.16;;;25.22;40.73
66627;BME280;53498;50.422;14.912;2022-07-24T09:21:11;99500.66;;;24.44;40.23
66627;BME280;53498;50.422;14.912;2022-07-24T09:23:39;99504.06;;;24.65;41.38
66627;BME280;53498;50.422;14.912;2022-07-24T09:26:05;99495.81;;;25.04;39.69
66627;BME280;53498;50.422;14.912;2022-07-24T09:28:54;99505.84;;;24.99;40.33
66627;BME280;53498;50.422;14.912;2022-07-24T09:31:21;99499.56;;;25.00;40.63
66627;BME280;53498;50.422;14.912;2022-07-24T09:33:48;99501.13;;;25.22;39.68
66627;BME280;53498;50.422;14.912;2022-07-24T09:36:17;99499.31;;;25.71;40.25
66627;BME280;53498;50.422;14.912;2022-07-24T09:38:52;99497.03;;;26.13;38.63
66627;BME280;53498;50.422;14.912;2022-07-24T09:41:24;99495.56;;;25.91;37.60
66627;BME280;53498;50.422;14.912;2022-07-24T09:44:01;99499.75;;;25.14;38.46
66627;BME280;53498;50.422;14.912;2022-07-24T09:46:28;99491.63;;;24.65;39.04
66627;BME280;53498;50.422;14.912;2022-07-24T09:48:56;99487.78;;;24.88;38.28
66627;BME280;53498;50.422;14.912;2022-07-24T09:51:27;99501.69;;;24.93;38.68
66627;BME280;53498;50.422;14.912;2022-07-24T09:53:56;99495.03;;;24.50;39.01
66627;BME280;53498;50.422;14.912;2022-07-24T09:56:29;99489.53;;;25.05;39.50
66627;BME280;53498;50.422;14.912;2022-07-24T09:58:56;99478.97;;;25.70;38.38
66627;BME280;53498;50.422;14.912;2022-07-24T10:01:26;99483.97;;;26.08;36.64
66627;BME280;53498;50.422;14.912;2022-07-24T10:03:53;99473.75;;;25.84;37.91
66627;BME280;53498;50.422;14.912;2022-07-24T10:06:21;99474.94;;;26.11;37.59
66627;BME280;53498;50.422;14.912;2022-07-24T10:08:49;99479.75;;;26.04;35.54
66627;BME280;53498;50.422;14.912;2022-07-24T10:11:16;99470.50;;;26.25;35.96
66627;BME280;53498;50.422;14.912;2022-07-24T10:13:42;99472.41;;;25.76;35.18
66627;BME280;53498;50.422;14.912;2022-07-24T10:21:21;99465.97;;;25.48;35.77
66627;BME280;53498;50.422;14.912;2022-07-24T10:29:14;99461.66;;;25.30;35.82
66627;BME280;53498;50.422;14.912;2022-07-24T10:31:45;99471.34;;;25.31;35.63
66627;BME280;53498;50.422;14.912;2022-07-24T10:39:34;99456.34;;;25.12;33.92
66627;BME280;53498;50.422;14.912;2022-07-24T10:42:06;99449.97;;;25.32;34.16
66627;BME280;53498;50.422;14.912;2022-07-24T10:44:32;99450.41;;;25.56;34.62
66627;BME280;53498;50.422;14.912;2022-07-24T10:47:05;99447.72;;;25.41;33.95
66627;BME280;53498;50.422;14.912;2022-07-24T10:52:03;99450.50;;;25.39;33.90
66627;BME280;53498;50.422;14.912;2022-07-24T10:54:28;99453.22;;;25.37;33.06
66627;BME280;53498;50.422;14.912;2022-07-24T10:56:54;99449.38;;;25.59;33.17
66627;BME280;53498;50.422;14.912;2022-07-24T10:59:41;99449.91;;;25.50;32.79
66627;BME280;53498;50.422;14.912;2022-07-24T11:02:27;99449.31;;;25.76;32.38
66627;BME280;53498;50.422;14.912;2022-07-24T11:05:29;99447.22;;;25.50;33.53
66627;BME280;53498;50.422;14.912;2022-07-24T11:10:48;99447.91;;;25.53;32.45
66627;BME280;53498;50.422;14.912;2022-07-24T11:13:51;99454.38;;;25.65;32.73
66627;BME280;53498;50.422;14.912;2022-07-24T11:21:39;99446.88;;;25.72;32.52
66627;BME280;53498;50.422;14.912;2022-07-24T11:26:55;99440.31;;;26.25;33.79
66627;BME280;53498;50.422;14.912;2022-07-24T11:29:22;99444.38;;;26.46;33.77
66627;BME280;53498;50.422;14.912;2022-07-24T11:31:51;99441.84;;;26.89;32.17
66627;BME280;53498;50.422;14.912;2022-07-24T11:34:19;99438.94;;;26.64;31.19
66627;BME280;53498;50.422;14.912;2022-07-24T11:36:47;99434.94;;;26.85;32.06
66627;BME280;53498;50.422;14.912;2022-07-24T11:39:17;99429.47;;;27.17;32.25
66627;BME280;53498;50.422;14.912;2022-07-24T11:41:47;99431.19;;;27.18;31.87
66627;BME280;53498;50.422;14.912;2022-07-24T11:44:14;99427.38;;;27.36;31.54
66627;BME280;53498;50.422;14.912;2022-07-24T11:46:43;99421.94;;;27.24;31.54
66627;BME280;53498;50.422;14.912;2022-07-24T11:49:09;99431.72;;;27.52;31.68
66627;BME280;53498;50.422;14.912;2022-07-24T11:54:09;99426.31;;;27.25;31.27
66627;BME280;53498;50.422;14.912;2022-07-24T11:56:36;99422.94;;;26.78;30.77
66627;BME280;53498;50.422;14.912;2022-07-24T11:59:02;99411.66;;;26.59;31.53
66627;BME280;53498;50.422;14.912;2022-07-24T12:01:27;99406.16;;;26.62;32.61
66627;BME280;53498;50.422;14.912;2022-07-24T12:03:58;99415.03;;;26.46;32.19
66627;BME280;53498;50.422;14.912;2022-07-24T12:06:28;99421.34;;;26.45;32.93
66627;BME280;53498;50.422;14.912;2022-07-24T12:08:57;99416.38;;;26.39;33.17
66627;BME280;53498;50.422;14.912;2022-07-24T12:11:33;99409.28;;;26.38;33.00
66627;BME280;53498;50.422;14.912;2022-07-24T12:13:58;99412.44;;;26.30;32.07
66627;BME280;53498;50.422;14.912;2022-07-24T12:16:26;99413.28;;;26.31;32.34
66627;BME280;53498;50.422;14.912;2022-07-24T12:19:16;99401.44;;;26.51;32.92
66627;BME280;53498;50.422;14.912;2022-07-24T12:21:44;99401.78;;;26.75;31.90
66627;BME280;53498;50.422;14.912;2022-07-24T12:24:10;99399.09;;;26.75;31.25
66627;BME280;53498;50.422;14.912;2022-07-24T12:26:58;99390.91;;;26.78;30.54
66627;BME280;53498;50.422;14.912;2022-07-24T12:29:26;99392.34;;;27.12;30.68
66627;BME280;53498;50.422;14.912;2022-07-24T12:31:53;99395.13;;;27.39;31.74
66627;BME280;53498;50.422;14.912;2022-07-24T12:34:47;99388.06;;;26.95;30.72
66627;BME280;53498;50.422;14.912;2022-07-24T12:37:17;99389.19;;;26.63;30.66
66627;BME280;53498;50.422;14.912;2022-07-24T12:39:47;99395.47;;;26.62;30.72
66627;BME280;53498;50.422;14.912;2022-07-24T12:42:13;99386.31;;;26.51;30.23
66627;BME280;53498;50.422;14.912;2022-07-24T12:44:40;99388.91;;;26.82;31.32
66627;BME280;53498;50.422;14.912;2022-07-24T12:47:13;99376.16;;;27.15;30.59
66627;BME280;53498;50.422;14.912;2022-07-24T12:49:43;99375.75;;;26.93;30.54
66627;BME280;53498;50.422;14.912;2022-07-24T12:52:23;99376.63;;;27.08;30.49
66627;BME280;53498;50.422;14.912;2022-07-24T12:54:51;99364.66;;;27.13;29.63
66627;BME280;53498;50.422;14.912;2022-07-24T12:57:20;99366.41;;;27.29;30.81
66627;BME280;53498;50.422;14.912;2022-07-24T12:59:48;99368.03;;;26.88;30.52
66627;BME280;53498;50.422;14.912;2022-07-24T13:02:19;99360.50;;;26.81;30.98
66627;BME280;53498;50.422;14.912;2022-07-24T13:05:15;99360.50;;;26.66;31.31
66627;BME280;53498;50.422;14.912;2022-07-24T13:07:40;99356.41;;;26.61;31.59
66627;BME280;53498;50.422;14.912;2022-07-24T13:10:06;99360.41;;;26.82;31.23
66627;BME280;53498;50.422;14.912;2022-07-24T13:12:32;99367.72;;;27.36;31.98
66627;BME280;53498;50.422;14.912;2022-07-24T13:14:58;99362.31;;;27.09;30.92
66627;BME280;53498;50.422;14.912;2022-07-24T13:17:23;99355.34;;;26.77;30.76
66627;BME280;53498;50.422;14.912;2022-07-24T13:19:50;99347.06;;;26.68;31.57
66627;BME280;53498;50.422;14.912;2022-07-24T13:22:19;99349.72;;;26.96;30.64
66627;BME280;53498;50.422;14.912;2022-07-24T13:24:45;99348.09;;;26.94;30.83
66627;BME280;53498;50.422;14.912;2022-07-24T13:27:11;99342.66;;;27.10;31.82
66627;BME280;53498;50.422;14.912;2022-07-24T13:29:43;99342.94;;;27.05;31.09
66627;BME280;53498;50.422;14.912;2022-07-24T13:32:08;99334.84;;;27.21;31.40
66627;BME280;53498;50.422;14.912;2022-07-24T13:34:34;99330.16;;;27.10;31.04
66627;BME280;53498;50.422;14.912;2022-07-24T13:37:00;99327.88;;;27.04;31.40
66627;BME280;53498;50.422;14.912;2022-07-24T13:39:26;99332.28;;;27.05;31.33
66627;BME280;53498;50.422;14.912;2022-07-24T13:41:51;99330.53;;;27.33;30.33
66627;BME280;53498;50.422;14.912;2022-07-24T13:44:17;99325.88;;;26.93;30.38
66627;BME280;53498;50.422;14.912;2022-07-24T13:46:43;99325.31;;;26.88;31.29
66627;BME280;53498;50.422;14.912;2022-07-24T13:49:08;99321.25;;;27.38;31.81
66627;BME280;53498;50.422;14.912;2022-07-24T13:51:35;99336.22;;;27.68;28.70
66627;BME280;53498;50.422;14.912;2022-07-24T13:54:01;99320.78;;;27.32;29.98
66627;BME280;53498;50.422;14.912;2022-07-24T13:56:26;99326.06;;;27.19;29.87
66627;BME280;53498;50.422;14.912;2022-07-24T13:58:52;99321.69;;;27.18;30.57
66627;BME280;53498;50.422;14.912;2022-07-24T14:01:19;99322.38;;;27.49;30.01
66627;BME280;53498;50.422;14.912;2022-07-24T14:03:45;99318.38;;;27.41;30.44
66627;BME280;53498;50.422;14.912;2022-07-24T14:06:12;99321.44;;;27.35;30.33
66627;BME280;53498;50.422;14.912;2022-07-24T14:08:38;99318.88;;;27.34;31.15
66627;BME280;53498;50.422;14.912;2022-07-24T14:11:05;99318.72;;;27.50;30.85
66627;BME280;53498;50.422;14.912;2022-07-24T14:13:31;99305.00;;;27.68;32.12
66627;BME280;53498;50.422;14.912;2022-07-24T14:15:57;99308.50;;;27.56;29.75
66627;BME280;53498;50.422;14.912;2022-07-24T14:18:23;99308.41;;;27.31;29.67
66627;BME280;53498;50.422;14.912;2022-07-24T14:20:50;99299.78;;;27.40;30.16
66627;BME280;53498;50.422;14.912;2022-07-24T14:23:19;99292.91;;;27.63;30.25
66627;BME280;53498;50.422;14.912;2022-07-24T14:25:45;99293.44;;;27.55;30.94
66627;BME280;53498;50.422;14.912;2022-07-24T14:28:14;99286.84;;;27.74;31.34
66627;BME280;53498;50.422;14.912;2022-07-24T14:30:40;99279.53;;;27.77;30.60
66627;BME280;53498;50.422;14.912;2022-07-24T14:33:05;99278.34;;;27.81;29.74
66627;BME280;53498;50.422;14.912;2022-07-24T14:35:31;99271.72;;;27.87;29.76
66627;BME280;53498;50.422;14.912;2022-07-24T14:38:00;99269.00;;;27.74;29.74
66627;BME280;53498;50.422;14.912;2022-07-24T14:40:26;99264.72;;;27.44;30.05
66627;BME280;53498;50.422;14.912;2022-07-24T14:42:52;99257.31;;;27.62;30.49
66627;BME280;53498;50.422;14.912;2022-07-24T14:45:19;99249.84;;;27.67;30.17
66627;BME280;53498;50.422;14.912;2022-07-24T14:47:44;99253.81;;;27.75;30.69
66627;BME280;53498;50.422;14.912;2022-07-24T14:50:10;99247.31;;;27.79;30.08
66627;BME280;53498;50.422;14.912;2022-07-24T14:52:36;99248.66;;;27.72;30.33
66627;BME280;53498;50.422;14.912;2022-07-24T14:55:04;99248.97;;;27.67;30.83
66627;BME280;53498;50.422;14.912;2022-07-24T14:57:30;99245.34;;;27.68;30.00
66627;BME280;53498;50.422;14.912;2022-07-24T14:59:55;99247.59;;;27.34;29.92
66627;BME280;53498;50.422;14.912;2022-07-24T15:02:21;99242.75;;;27.54;30.91
66627;BME280;53498;50.422;14.912;2022-07-24T15:04:47;99241.91;;;27.66;31.05
66627;BME280;53498;50.422;14.912;2022-07-24T15:07:12;99242.03;;;27.64;30.69
66627;BME280;53498;50.422;14.912;2022-07-24T15:09:38;99235.34;;;27.44;31.69
66627;BME280;53498;50.422;14.912;2022-07-24T15:12:04;99235.50;;;27.56;31.26
66627;BME280;53498;50.422;14.912;2022-07-24T15:14:29;99235.38;;;27.57;31.19
66627;BME280;53498;50.422;14.912;2022-07-24T15:16:55;99227.59;;;27.67;31.74
66627;BME280;53498;50.422;14.912;2022-07-24T15:19:21;99232.06;;;27.66;31.02
66627;BME280;53498;50.422;14.912;2022-07-24T15:21:46;99227.38;;;27.70;30.48
66627;BME280;53498;50.422;14.912;2022-07-24T15:24:12;99225.97;;;27.52;29.29
66627;BME280;53498;50.422;14.912;2022-07-24T15:26:37;99230.84;;;27.45;29.60
66627;BME280;53498;50.422;14.912;2022-07-24T15:29:04;99224.25;;;27.51;29.85
66627;BME280;53498;50.422;14.912;2022-07-24T15:31:30;99221.28;;;27.55;30.51
66627;BME280;53498;50.422;14.912;2022-07-24T15:33:56;99221.91;;;27.59;31.38
66627;BME280;53498;50.422;14.912;2022-07-24T15:36:22;99217.31;;;27.61;31.81
66627;BME280;53498;50.422;14.912;2022-07-24T15:38:47;99219.97;;;27.48;30.61
66627;BME280;53498;50.422;14.912;2022-07-24T15:41:13;99220.63;;;27.52;30.22
66627;BME280;53498;50.422;14.912;2022-07-24T15:43:39;99216.13;;;27.39;29.48
66627;BME280;53498;50.422;14.912;2022-07-24T15:46:05;99219.34;;;27.17;29.57
66627;BME280;53498;50.422;14.912;2022-07-24T15:48:39;99220.56;;;27.12;29.69
66627;BME280;53498;50.422;14.912;2022-07-24T15:51:05;99211.78;;;27.10;30.46
66627;BME280;53498;50.422;14.912;2022-07-24T15:53:30;99211.44;;;27.16;29.50
66627;BME280;53498;50.422;14.912;2022-07-24T15:55:56;99212.72;;;27.23;29.67
66627;BME280;53498;50.422;14.912;2022-07-24T15:58:21;99216.72;;;27.30;29.08
66627;BME280;53498;50.422;14.912;2022-07-24T16:00:47;99208.28;;;27.24;29.30
66627;BME280;53498;50.422;14.912;2022-07-24T16:03:13;99211.59;;;27.27;29.54
66627;BME280;53498;50.422;14.912;2022-07-24T16:05:41;99205.13;;;27.17;30.40
66627;BME280;53498;50.422;14.912;2022-07-24T16:08:07;99202.44;;;27.17;29.64
66627;BME280;53498;50.422;14.912;2022-07-24T16:10:33;99193.81;;;27.26;30.26
66627;BME280;53498;50.422;14.912;2022-07-24T16:12:58;99188.59;;;27.25;30.28
66627;BME280;53498;50.422;14.912;2022-07-24T16:15:24;99190.22;;;27.27;30.85
66627;BME280;53498;50.422;14.912;2022-07-24T16:17:50;99193.63;;;27.29;30.59
66627;BME280;53498;50.422;14.912;2022-07-24T16:20:16;99183.56;;;27.20;30.01
66627;BME280;53498;50.422;14.912;2022-07-24T16:22:43;99181.84;;;27.19;30.43
66627;BME280;53498;50.422;14.912;2022-07-24T16:25:09;99181.84;;;27.19;30.62
66627;BME280;53498;50.422;14.912;2022-07-24T16:27:34;99191.09;;;27.13;30.00
66627;BME280;53498;50.422;14.912;2022-07-24T16:30:00;99189.09;;;27.17;30.41
66627;BME280;53498;50.422;14.912;2022-07-24T16:32:26;99182.91;;;27.16;30.42
66627;BME280;53498;50.422;14.912;2022-07-24T16:34:52;99185.41;;;27.05;30.27
66627;BME280;53498;50.422;14.912;2022-07-24T16:37:17;99186.41;;;26.90;29.86
66627;BME280;53498;50.422;14.912;2022-07-24T16:39:43;99177.88;;;26.97;29.76
66627;BME280;53498;50.422;14.912;2022-07-24T16:42:10;99174.50;;;26.95;30.04
66627;BME280;53498;50.422;14.912;2022-07-24T16:44:36;99180.97;;;26.91;30.64
66627;BME280;53498;50.422;14.912;2022-07-24T16:47:02;99177.00;;;26.84;30.82
66627;BME280;53498;50.422;14.912;2022-07-24T16:49:28;99175.50;;;26.80;30.53
66627;BME280;53498;50.422;14.912;2022-07-24T16:51:53;99170.94;;;26.68;30.50
66627;BME280;53498;50.422;14.912;2022-07-24T16:54:19;99174.97;;;26.61;30.15
66627;BME280;53498;50.422;14.912;2022-07-24T16:56:45;99169.13;;;26.68;30.33
66627;BME280;53498;50.422;14.912;2022-07-24T16:59:11;99165.34;;;26.58;30.92
66627;BME280;53498;50.422;14.912;2022-07-24T17:01:36;99169.25;;;26.52;30.54
66627;BME280;53498;50.422;14.912;2022-07-24T17:04:03;99167.34;;;26.40;30.53
66627;BME280;53498;50.422;14.912;2022-07-24T17:06:29;99169.03;;;26.41;30.49
66627;BME280;53498;50.422;14.912;2022-07-24T17:08:55;99170.66;;;26.44;30.35
66627;BME280;53498;50.422;14.912;2022-07-24T17:11:23;99163.50;;;26.44;30.61
66627;BME280;53498;50.422;14.912;2022-07-24T17:13:49;99168.09;;;26.42;30.84
66627;BME280;53498;50.422;14.912;2022-07-24T17:16:15;99167.34;;;26.40;30.34
66627;BME280;53498;50.422;14.912;2022-07-24T17:18:41;99176.09;;;26.42;30.74
66627;BME280;53498;50.422;14.912;2022-07-24T17:21:06;99170.59;;;26.31;31.17
66627;BME280;53498;50.422;14.912;2022-07-24T17:23:32;99167.91;;;26.31;30.98
66627;BME280;53498;50.422;14.912;2022-07-24T17:25:57;99175.34;;;26.26;30.74
66627;BME280;53498;50.422;14.912;2022-07-24T17:28:24;99171.75;;;26.27;31.07
66627;BME280;53498;50.422;14.912;2022-07-24T17:30:49;99170.31;;;26.21;31.35
66627;BME280;53498;50.422;14.912;2022-07-24T17:33:16;99172.41;;;26.16;31.07
66627;BME280;53498;50.422;14.912;2022-07-24T17:35:42;99172.31;;;26.18;31.43
66627;BME280;53498;50.422;14.912;2022-07-24T17:38:08;99168.69;;;26.19;31.06
66627;BME280;53498;50.422;14.912;2022-07-24T17:40:33;99165.56;;;26.12;30.92
66627;BME280;53498;50.422;14.912;2022-07-24T17:42:59;99168.03;;;26.15;31.22
66627;BME280;53498;50.422;14.912;2022-07-24T17:45:25;99161.84;;;26.15;31.34
66627;BME280;53498;50.422;14.912;2022-07-24T17:47:51;99165.66;;;26.11;31.20
66627;BME280;53498;50.422;14.912;2022-07-24T17:50:17;99154.31;;;26.07;31.19
66627;BME280;53498;50.422;14.912;2022-07-24T17:52:44;99166.78;;;26.06;31.48
66627;BME280;53498;50.422;14.912;2022-07-24T17:55:10;99162.50;;;26.04;32.03
66627;BME280;53498;50.422;14.912;2022-07-24T17:57:44;99164.78;;;25.96;31.72
66627;BME280;53498;50.422;14.912;2022-07-24T18:00:11;99157.25;;;25.88;32.43
66627;BME280;53498;50.422;14.912;2022-07-24T18:02:38;99161.06;;;25.84;32.33
66627;BME280;53498;50.422;14.912;2022-07-24T18:05:05;99163.09;;;25.79;32.55
66627;BME280;53498;50.422;14.912;2022-07-24T18:07:31;99161.41;;;25.78;32.44
66627;BME280;53498;50.422;14.912;2022-07-24T18:09:56;99158.75;;;25.78;32.55
66627;BME280;53498;50.422;14.912;2022-07-24T18:12:22;99154.56;;;25.74;32.78
66627;BME280;53498;50.422;14.912;2022-07-24T18:14:48;99163.28;;;25.61;33.51
66627;BME280;53498;50.422;14.912;2022-07-24T18:17:14;99155.19;;;25.63;33.58
66627;BME280;53498;50.422;14.912;2022-07-24T18:19:39;99166.59;;;25.51;34.05
66627;BME280;53498;50.422;14.912;2022-07-24T18:22:05;99157.84;;;25.49;34.49
66627;BME280;53498;50.422;14.912;2022-07-24T18:24:31;99163.53;;;25.43;34.27
66627;BME280;53498;50.422;14.912;2022-07-24T18:26:57;99165.59;;;25.37;34.64
66627;BME280;53498;50.422;14.912;2022-07-24T18:29:23;99156.28;;;25.30;35.27
66627;BME280;53498;50.422;14.912;2022-07-24T18:31:48;99156.63;;;25.24;34.81
66627;BME280;53498;50.422;14.912;2022-07-24T18:34:14;99156.34;;;25.29;34.68
66627;BME280;53498;50.422;14.912;2022-07-24T18:36:40;99156.34;;;25.29;35.08
66627;BME280;53498;50.422;14.912;2022-07-24T18:39:06;99154.34;;;25.18;35.06
66627;BME280;53498;50.422;14.912;2022-07-24T18:41:32;99151.00;;;25.14;35.21
66627;BME280;53498;50.422;14.912;2022-07-24T18:43:58;99152.63;;;25.17;34.75
66627;BME280;53498;50.422;14.912;2022-07-24T18:46:25;99152.53;;;25.19;35.16
66627;BME280;53498;50.422;14.912;2022-07-24T18:48:51;99155.38;;;25.15;35.53
66627;BME280;53498;50.422;14.912;2022-07-24T18:51:17;99159.47;;;25.05;35.85
66627;BME280;53498;50.422;14.912;2022-07-24T18:53:43;99162.06;;;24.91;36.64
66627;BME280;53498;50.422;14.912;2022-07-24T18:56:44;99164.34;;;24.83;36.77
66627;BME280;53498;50.422;14.912;2022-07-24T18:59:10;99165.44;;;24.79;37.04
66627;BME280;53498;50.422;14.912;2022-07-24T19:01:35;99161.34;;;24.73;36.38
66627;BME280;53498;50.422;14.912;2022-07-24T19:04:01;99160.91;;;24.65;36.73
66627;BME280;53498;50.422;14.912;2022-07-24T19:06:30;99167.25;;;24.62;36.43
66627;BME280;53498;50.422;14.912;2022-07-24T19:08:55;99174.81;;;24.54;36.63
66627;BME280;53498;50.422;14.912;2022-07-24T19:11:21;99171.19;;;24.55;36.64
66627;BME280;53498;50.422;14.912;2022-07-24T19:13:46;99174.19;;;24.49;36.26
66627;BME280;53498;50.422;14.912;2022-07-24T19:16:12;99176.25;;;24.44;36.75
66627;BME280;53498;50.422;14.912;2022-07-24T19:18:38;99178.28;;;24.39;37.25
66627;BME280;53498;50.422;14.912;2022-07-24T19:21:04;99183.16;;;24.31;36.84
66627;BME280;53498;50.422;14.912;2022-07-24T19:23:29;99187.25;;;24.20;38.08
66627;BME280;53498;50.422;14.912;2022-07-24T19:25:55;99186.91;;;24.11;38.54
66627;BME280;53498;50.422;14.912;2022-07-24T19:28:22;99185.69;;;24.00;39.74
66627;BME280;53498;50.422;14.912;2022-07-24T19:30:48;99190.38;;;23.95;38.76
66627;BME280;53498;50.422;14.912;2022-07-24T19:33:13;99185.28;;;23.91;39.79
66627;BME280;53498;50.422;14.912;2022-07-24T19:35:39;99183.91;;;23.84;40.45
66627;BME280;53498;50.422;14.912;2022-07-24T19:38:04;99192.13;;;23.79;40.01
66627;BME280;53498;50.422;14.912;2022-07-24T19:40:30;99186.56;;;23.66;40.77
66627;BME280;53498;50.422;14.912;2022-07-24T19:42:56;99189.59;;;23.59;41.10
66627;BME280;53498;50.422;14.912;2022-07-24T19:45:22;99192.66;;;23.51;41.42
66627;BME280;53498;50.422;14.912;2022-07-24T19:47:47;99201.84;;;23.44;41.97
66627;BME280;53498;50.422;14.912;2022-07-24T19:50:13;99197.88;;;23.35;41.98
66627;BME280;53498;50.422;14.912;2022-07-24T19:52:38;99202.53;;;23.30;42.94
66627;BME280;53498;50.422;14.912;2022-07-24T19:55:04;99200.03;;;23.27;42.88
66627;BME280;53498;50.422;14.912;2022-07-24T19:57:31;99205.66;;;23.21;42.28
66627;BME280;53498;50.422;14.912;2022-07-24T19:59:56;99209.41;;;23.17;42.63
66627;BME280;53498;50.422;14.912;2022-07-24T20:02:22;99199.78;;;23.14;43.54
66627;BME280;53498;50.422;14.912;2022-07-24T20:04:48;99204.56;;;23.07;43.03
66627;BME280;53498;50.422;14.912;2022-07-24T20:07:13;99218.25;;;22.98;43.16
66627;BME280;53498;50.422;14.912;2022-07-24T20:09:39;99208.66;;;22.96;43.60
66627;BME280;53498;50.422;14.912;2022-07-24T20:12:08;99208.91;;;22.90;43.88
66627;BME280;53498;50.422;14.912;2022-07-24T20:14:34;99202.03;;;22.85;44.89
66627;BME280;53498;50.422;14.912;2022-07-24T20:16:59;99214.91;;;22.76;44.96
66627;BME280;53498;50.422;14.912;2022-07-24T20:19:25;99202.91;;;22.67;45.37
66627;BME280;53498;50.422;14.912;2022-07-24T20:21:54;99208.59;;;22.59;45.42
66627;BME280;53498;50.422;14.912;2022-07-24T20:24:19;99200.41;;;22.45;45.63
66627;BME280;53498;50.422;14.912;2022-07-24T20:26:45;99202.13;;;22.46;46.07
66627;BME280;53498;50.422;14.912;2022-07-24T20:29:11;99198.72;;;22.44;46.50
66627;BME280;53498;50.422;14.912;2022-07-24T20:31:36;99204.34;;;22.36;46.47
66627;BME280;53498;50.422;14.912;2022-07-24T20:34:02;99200.41;;;22.26;47.33
66627;BME280;53498;50.422;14.912;2022-07-24T20:36:31;99198.69;;;22.25;47.33
66627;BME280;53498;50.422;14.912;2022-07-24T20:38:57;99207.41;;;22.27;47.83
66627;BME280;53498;50.422;14.912;2022-07-24T20:41:23;99204.53;;;22.13;47.70
66627;BME280;53498;50.422;14.912;2022-07-24T20:43:49;99203.00;;;22.07;48.51
66627;BME280;53498;50.422;14.912;2022-07-24T20:46:14;99205.06;;;22.01;48.46
66627;BME280;53498;50.422;14.912;2022-07-24T20:48:40;99210.22;;;22.04;49.24
66627;BME280;53498;50.422;14.912;2022-07-24T20:51:05;99208.44;;;22.04;49.98
66627;BME280;53498;50.422;14.912;2022-07-24T20:53:31;99203.53;;;21.95;49.75